sensor_id;sensor_type;location;lat;lon;timestamp;P1;durP1;ratioP1;P2;durP2;ratioP2
46036;SDS011;31769;49.304;8.428;2024-02-21T00:01:03;18.23;;;6.97;;
46036;SDS011;31769;49.304;8.428;2024-02-21T00:04:05;22.10;;;6.97;;
46036;SDS011;31769;49.304;8.428;2024-02-21T00:07:06;19.08;;;7.10;;
46036;SDS011;31769;49.304;8.428;2024-02-21T00:10:07;21.48;;;6.43;;
46036;SDS011;31769;49.304;8.428;2024-02-21T00:13:08;18.70;;;6.43;;
46036;SDS011;31769;49.304;8.428;2024-02-21T00:16:08;20.77;;;6.88;;
46036;SDS011;31769;49.304;8.428;2024-02-21T00:19:10;21.15;;;6.30;;
46036;SDS011;31769;49.304;8.428;2024-02-21T00:22:11;21.90;;;7.05;;
46036;SDS011;31769;49.304;8.428;2024-02-21T00:25:12;19.58;;;6.85;;
46036;SDS011;31769;49.304;8.428;2024-02-21T00:28:12;22.35;;;6.93;;
46036;SDS011;31769;49.304;8.428;2024-02-21T00:31:13;20.98;;;7.05;;
46036;SDS011;31769;49.304;8.428;2024-02-21T00:34:14;21.02;;;7.10;;
46036;SDS011;31769;49.304;8.428;2024-02-21T00:37:14;28.40;;;7.53;;
46036;SDS011;31769;49.304;8.428;2024-02-21T00:40:15;21.70;;;7.00;;
46036;SDS011;31769;49.304;8.428;2024-02-21T00:43:20;24.58;;;7.40;;
46036;SDS011;31769;49.304;8.428;2024-02-21T00:46:23;20.23;;;6.72;;
46036;SDS011;31769;49.304;8.428;2024-02-21T00:49:24;23.13;;;7.50;;
46036;SDS011;31769;49.304;8.428;2024-02-21T00:52:25;20.35;;;7.38;;
46036;SDS011;31769;49.304;8.428;2024-02-21T00:55:25;24.73;;;8.05;;
46036;SDS011;31769;49.304;8.428;2024-02-21T00:58:26;23.35;;;7.63;;
46036;SDS011;31769;49.304;8.428;2024-02-21T01:01:26;27.45;;;7.93;;
46036;SDS011;31769;49.304;8.428;2024-02-21T01:04:27;22.33;;;7.63;;
46036;SDS011;31769;49.304;8.428;2024-02-21T01:07:28;22.38;;;7.68;;
46036;SDS011;31769;49.304;8.428;2024-02-21T01:10:28;18.63;;;6.68;;
46036;SDS011;31769;49.304;8.428;2024-02-21T01:13:30;17.73;;;6.50;;
46036;SDS011;31769;49.304;8.428;2024-02-21T01:16:30;20.60;;;7.93;;
46036;SDS011;31769;49.304;8.428;2024-02-21T01:19:31;21.95;;;8.25;;
46036;SDS011;31769;49.304;8.428;2024-02-21T01:22:32;25.00;;;8.15;;
46036;SDS011;31769;49.304;8.428;2024-02-21T01:25:33;23.70;;;8.18;;
46036;SDS011;31769;49.304;8.428;2024-02-21T01:28:34;24.23;;;8.63;;
46036;SDS011;31769;49.304;8.428;2024-02-21T01:31:35;21.25;;;8.20;;
46036;SDS011;31769;49.304;8.428;2024-02-21T01:34:36;24.20;;;6.80;;
46036;SDS011;31769;49.304;8.428;2024-02-21T01:37:37;19.05;;;8.15;;
46036;SDS011;31769;49.304;8.428;2024-02-21T01:40:37;25.73;;;8.13;;
46036;SDS011;31769;49.304;8.428;2024-02-21T01:43:38;22.58;;;7.68;;
46036;SDS011;31769;49.304;8.428;2024-02-21T01:46:39;20.33;;;6.82;;
46036;SDS011;31769;49.304;8.428;2024-02-21T01:49:40;18.98;;;7.15;;
46036;SDS011;31769;49.304;8.428;2024-02-21T01:52:41;17.90;;;7.40;;
46036;SDS011;31769;49.304;8.428;2024-02-21T01:55:46;17.92;;;6.75;;
46036;SDS011;31769;49.304;8.428;2024-02-21T01:58:47;23.15;;;7.65;;
46036;SDS011;31769;49.304;8.428;2024-02-21T02:01:49;25.30;;;8.20;;
46036;SDS011;31769;49.304;8.428;2024-02-21T02:04:51;21.42;;;7.60;;
46036;SDS011;31769;49.304;8.428;2024-02-21T02:07:53;24.60;;;7.95;;
46036;SDS011;31769;49.304;8.428;2024-02-21T02:10:53;27.13;;;7.75;;
46036;SDS011;31769;49.304;8.428;2024-02-21T02:13:54;19.90;;;8.63;;
46036;SDS011;31769;49.304;8.428;2024-02-21T02:16:55;19.85;;;7.50;;
46036;SDS011;31769;49.304;8.428;2024-02-21T02:19:55;19.33;;;7.43;;
46036;SDS011;31769;49.304;8.428;2024-02-21T02:22:56;23.25;;;7.13;;
46036;SDS011;31769;49.304;8.428;2024-02-21T02:25:59;21.65;;;7.60;;
46036;SDS011;31769;49.304;8.428;2024-02-21T02:29:01;22.65;;;7.88;;
46036;SDS011;31769;49.304;8.428;2024-02-21T02:32:02;21.75;;;7.63;;
46036;SDS011;31769;49.304;8.428;2024-02-21T02:35:03;23.40;;;7.88;;
46036;SDS011;31769;49.304;8.428;2024-02-21T02:38:04;17.70;;;7.38;;
46036;SDS011;31769;49.304;8.428;2024-02-21T02:41:05;19.50;;;8.38;;
46036;SDS011;31769;49.304;8.428;2024-02-21T02:44:06;20.35;;;6.97;;
46036;SDS011;31769;49.304;8.428;2024-02-21T02:47:06;19.83;;;7.70;;
46036;SDS011;31769;49.304;8.428;2024-02-21T02:50:08;20.45;;;8.00;;
46036;SDS011;31769;49.304;8.428;2024-02-21T02:53:09;29.02;;;8.38;;
46036;SDS011;31769;49.304;8.428;2024-02-21T02:56:16;21.63;;;7.35;;
46036;SDS011;31769;49.304;8.428;2024-02-21T02:59:16;17.73;;;6.90;;
46036;SDS011;31769;49.304;8.428;2024-02-21T03:02:17;19.45;;;7.18;;
46036;SDS011;31769;49.304;8.428;2024-02-21T03:05:19;21.77;;;7.18;;
46036;SDS011;31769;49.304;8.428;2024-02-21T03:08:21;17.02;;;7.25;;
46036;SDS011;31769;49.304;8.428;2024-02-21T03:11:22;21.42;;;7.32;;
46036;SDS011;31769;49.304;8.428;2024-02-21T03:14:29;22.23;;;7.23;;
46036;SDS011;31769;49.304;8.428;2024-02-21T03:17:30;20.33;;;7.78;;
46036;SDS011;31769;49.304;8.428;2024-02-21T03:20:31;14.93;;;7.28;;
46036;SDS011;31769;49.304;8.428;2024-02-21T03:23:32;18.60;;;6.82;;
46036;SDS011;31769;49.304;8.428;2024-02-21T03:26:33;19.13;;;6.85;;
46036;SDS011;31769;49.304;8.428;2024-02-21T03:29:33;17.45;;;7.72;;
46036;SDS011;31769;49.304;8.428;2024-02-21T03:32:34;22.33;;;7.85;;
46036;SDS011;31769;49.304;8.428;2024-02-21T03:35:35;22.00;;;7.80;;
46036;SDS011;31769;49.304;8.428;2024-02-21T03:38:35;18.00;;;7.20;;
46036;SDS011;31769;49.304;8.428;2024-02-21T03:41:36;20.95;;;8.07;;
46036;SDS011;31769;49.304;8.428;2024-02-21T03:44:37;20.27;;;7.15;;
46036;SDS011;31769;49.304;8.428;2024-02-21T03:47:37;24.52;;;7.65;;
46036;SDS011;31769;49.304;8.428;2024-02-21T03:50:38;22.95;;;7.13;;
46036;SDS011;31769;49.304;8.428;2024-02-21T03:53:39;16.98;;;7.03;;
46036;SDS011;31769;49.304;8.428;2024-02-21T03:56:40;20.17;;;7.50;;
46036;SDS011;31769;49.304;8.428;2024-02-21T03:59:41;20.70;;;7.80;;
46036;SDS011;31769;49.304;8.428;2024-02-21T04:02:41;15.80;;;7.22;;
46036;SDS011;31769;49.304;8.428;2024-02-21T04:05:42;22.60;;;7.75;;
46036;SDS011;31769;49.304;8.428;2024-02-21T04:08:43;18.83;;;7.45;;
46036;SDS011;31769;49.304;8.428;2024-02-21T04:11:45;18.90;;;7.40;;
46036;SDS011;31769;49.304;8.428;2024-02-21T04:14:46;19.95;;;7.10;;
46036;SDS011;31769;49.304;8.428;2024-02-21T04:17:46;16.08;;;7.10;;
46036;SDS011;31769;49.304;8.428;2024-02-21T04:20:48;21.65;;;7.53;;
46036;SDS011;31769;49.304;8.428;2024-02-21T04:23:49;16.20;;;6.70;;
46036;SDS011;31769;49.304;8.428;2024-02-21T04:26:49;20.80;;;6.85;;
46036;SDS011;31769;49.304;8.428;2024-02-21T04:29:50;20.35;;;6.97;;
46036;SDS011;31769;49.304;8.428;2024-02-21T04:32:51;20.05;;;7.40;;
46036;SDS011;31769;49.304;8.428;2024-02-21T04:35:52;20.73;;;7.43;;
46036;SDS011;31769;49.304;8.428;2024-02-21T04:38:54;19.50;;;6.97;;
46036;SDS011;31769;49.304;8.428;2024-02-21T04:41:55;17.73;;;6.80;;
46036;SDS011;31769;49.304;8.428;2024-02-21T04:44:56;24.15;;;7.60;;
46036;SDS011;31769;49.304;8.428;2024-02-21T04:47:56;19.58;;;7.03;;
46036;SDS011;31769;49.304;8.428;2024-02-21T04:50:57;22.13;;;8.27;;
46036;SDS011;31769;49.304;8.428;2024-02-21T04:53:58;19.95;;;7.85;;
46036;SDS011;31769;49.304;8.428;2024-02-21T04:56:58;21.70;;;7.65;;
46036;SDS011;31769;49.304;8.428;2024-02-21T04:59:59;20.33;;;7.38;;
46036;SDS011;31769;49.304;8.428;2024-02-21T05:02:59;23.25;;;7.68;;
46036;SDS011;31769;49.304;8.428;2024-02-21T05:06:00;25.27;;;8.23;;
46036;SDS011;31769;49.304;8.428;2024-02-21T05:09:01;22.27;;;8.00;;
46036;SDS011;31769;49.304;8.428;2024-02-21T05:12:01;24.38;;;9.35;;
46036;SDS011;31769;49.304;8.428;2024-02-21T05:15:03;22.13;;;9.55;;
46036;SDS011;31769;49.304;8.428;2024-02-21T05:18:04;25.63;;;8.73;;
46036;SDS011;31769;49.304;8.428;2024-02-21T05:21:04;18.33;;;8.30;;
46036;SDS011;31769;49.304;8.428;2024-02-21T05:24:05;21.73;;;8.98;;
46036;SDS011;31769;49.304;8.428;2024-02-21T05:27:06;26.50;;;9.63;;
46036;SDS011;31769;49.304;8.428;2024-02-21T05:30:07;21.35;;;9.30;;
46036;SDS011;31769;49.304;8.428;2024-02-21T05:33:08;23.17;;;9.73;;
46036;SDS011;31769;49.304;8.428;2024-02-21T05:36:08;19.90;;;9.70;;
46036;SDS011;31769;49.304;8.428;2024-02-21T05:39:09;23.88;;;10.50;;
46036;SDS011;31769;49.304;8.428;2024-02-21T05:42:10;21.63;;;9.43;;
46036;SDS011;31769;49.304;8.428;2024-02-21T05:45:11;22.88;;;9.38;;
46036;SDS011;31769;49.304;8.428;2024-02-21T05:48:11;23.73;;;9.52;;
46036;SDS011;31769;49.304;8.428;2024-02-21T05:51:12;23.15;;;8.60;;
46036;SDS011;31769;49.304;8.428;2024-02-21T05:54:12;23.02;;;8.93;;
46036;SDS011;31769;49.304;8.428;2024-02-21T05:57:13;21.60;;;8.38;;
46036;SDS011;31769;49.304;8.428;2024-02-21T06:00:14;20.75;;;8.82;;
46036;SDS011;31769;49.304;8.428;2024-02-21T06:03:15;20.58;;;9.02;;
46036;SDS011;31769;49.304;8.428;2024-02-21T06:06:16;20.05;;;8.77;;
46036;SDS011;31769;49.304;8.428;2024-02-21T06:09:17;15.88;;;9.02;;
46036;SDS011;31769;49.304;8.428;2024-02-21T06:12:17;27.45;;;10.50;;
46036;SDS011;31769;49.304;8.428;2024-02-21T06:15:18;19.42;;;9.02;;
46036;SDS011;31769;49.304;8.428;2024-02-21T06:18:19;21.27;;;8.85;;
46036;SDS011;31769;49.304;8.428;2024-02-21T06:21:20;17.55;;;8.93;;
46036;SDS011;31769;49.304;8.428;2024-02-21T06:24:22;21.77;;;9.18;;
46036;SDS011;31769;49.304;8.428;2024-02-21T06:27:23;22.77;;;9.77;;
46036;SDS011;31769;49.304;8.428;2024-02-21T06:30:24;24.33;;;9.77;;
46036;SDS011;31769;49.304;8.428;2024-02-21T06:33:25;23.35;;;10.60;;
46036;SDS011;31769;49.304;8.428;2024-02-21T06:36:26;25.10;;;10.80;;
46036;SDS011;31769;49.304;8.428;2024-02-21T06:39:26;24.30;;;10.40;;
46036;SDS011;31769;49.304;8.428;2024-02-21T06:42:29;21.63;;;10.48;;
46036;SDS011;31769;49.304;8.428;2024-02-21T06:45:29;27.58;;;10.55;;
46036;SDS011;31769;49.304;8.428;2024-02-21T06:48:30;62.95;;;21.90;;
46036;SDS011;31769;49.304;8.428;2024-02-21T06:51:31;23.83;;;10.45;;
46036;SDS011;31769;49.304;8.428;2024-02-21T06:54:32;22.98;;;10.75;;
46036;SDS011;31769;49.304;8.428;2024-02-21T06:57:33;25.13;;;10.32;;
46036;SDS011;31769;49.304;8.428;2024-02-21T07:00:33;23.25;;;10.18;;
46036;SDS011;31769;49.304;8.428;2024-02-21T07:03:34;20.63;;;9.18;;
46036;SDS011;31769;49.304;8.428;2024-02-21T07:06:35;21.85;;;10.23;;
46036;SDS011;31769;49.304;8.428;2024-02-21T07:09:35;22.08;;;11.35;;
46036;SDS011;31769;49.304;8.428;2024-02-21T07:12:36;22.95;;;10.90;;
46036;SDS011;31769;49.304;8.428;2024-02-21T07:15:42;23.92;;;10.55;;
46036;SDS011;31769;49.304;8.428;2024-02-21T07:18:42;25.40;;;10.90;;
46036;SDS011;31769;49.304;8.428;2024-02-21T07:21:43;19.88;;;9.90;;
46036;SDS011;31769;49.304;8.428;2024-02-21T07:24:44;21.15;;;9.63;;
46036;SDS011;31769;49.304;8.428;2024-02-21T07:27:44;18.05;;;10.07;;
46036;SDS011;31769;49.304;8.428;2024-02-21T07:30:45;23.88;;;9.60;;
46036;SDS011;31769;49.304;8.428;2024-02-21T07:33:46;23.83;;;9.75;;
46036;SDS011;31769;49.304;8.428;2024-02-21T07:36:46;19.95;;;9.82;;
46036;SDS011;31769;49.304;8.428;2024-02-21T07:39:47;18.33;;;9.15;;
46036;SDS011;31769;49.304;8.428;2024-02-21T07:42:48;22.35;;;10.52;;
46036;SDS011;31769;49.304;8.428;2024-02-21T07:45:48;21.23;;;9.57;;
46036;SDS011;31769;49.304;8.428;2024-02-21T07:48:50;26.30;;;9.77;;
46036;SDS011;31769;49.304;8.428;2024-02-21T07:51:51;19.35;;;9.40;;
46036;SDS011;31769;49.304;8.428;2024-02-21T07:54:52;22.85;;;9.23;;
46036;SDS011;31769;49.304;8.428;2024-02-21T07:57:53;24.55;;;9.55;;
46036;SDS011;31769;49.304;8.428;2024-02-21T08:00:54;15.23;;;9.15;;
46036;SDS011;31769;49.304;8.428;2024-02-21T08:03:54;16.92;;;9.10;;
46036;SDS011;31769;49.304;8.428;2024-02-21T08:06:55;23.50;;;9.68;;
46036;SDS011;31769;49.304;8.428;2024-02-21T08:09:56;20.10;;;9.13;;
46036;SDS011;31769;49.304;8.428;2024-02-21T08:12:57;26.92;;;12.75;;
46036;SDS011;31769;49.304;8.428;2024-02-21T08:15:57;16.10;;;8.82;;
46036;SDS011;31769;49.304;8.428;2024-02-21T08:18:58;23.48;;;9.10;;
46036;SDS011;31769;49.304;8.428;2024-02-21T08:21:59;19.35;;;8.43;;
46036;SDS011;31769;49.304;8.428;2024-02-21T08:25:00;17.85;;;8.90;;
46036;SDS011;31769;49.304;8.428;2024-02-21T08:28:04;23.00;;;8.40;;
46036;SDS011;31769;49.304;8.428;2024-02-21T08:31:05;18.17;;;8.70;;
46036;SDS011;31769;49.304;8.428;2024-02-21T08:34:06;19.40;;;8.77;;
46036;SDS011;31769;49.304;8.428;2024-02-21T08:37:07;20.30;;;8.95;;
46036;SDS011;31769;49.304;8.428;2024-02-21T08:40:08;22.73;;;8.40;;
46036;SDS011;31769;49.304;8.428;2024-02-21T08:43:09;21.23;;;8.65;;
46036;SDS011;31769;49.304;8.428;2024-02-21T08:46:10;18.30;;;8.32;;
46036;SDS011;31769;49.304;8.428;2024-02-21T08:49:10;20.50;;;8.32;;
46036;SDS011;31769;49.304;8.428;2024-02-21T08:52:11;17.25;;;8.18;;
46036;SDS011;31769;49.304;8.428;2024-02-21T08:55:11;20.08;;;8.00;;
46036;SDS011;31769;49.304;8.428;2024-02-21T08:58:12;16.40;;;8.68;;
46036;SDS011;31769;49.304;8.428;2024-02-21T09:01:14;16.65;;;7.45;;
46036;SDS011;31769;49.304;8.428;2024-02-21T09:04:15;18.55;;;7.95;;
46036;SDS011;31769;49.304;8.428;2024-02-21T09:07:16;16.48;;;7.78;;
46036;SDS011;31769;49.304;8.428;2024-02-21T09:10:16;16.60;;;7.70;;
46036;SDS011;31769;49.304;8.428;2024-02-21T09:13:17;21.35;;;7.80;;
46036;SDS011;31769;49.304;8.428;2024-02-21T09:16:18;18.80;;;7.25;;
46036;SDS011;31769;49.304;8.428;2024-02-21T09:19:18;19.33;;;8.15;;
46036;SDS011;31769;49.304;8.428;2024-02-21T09:22:19;18.13;;;7.32;;
46036;SDS011;31769;49.304;8.428;2024-02-21T09:25:20;15.40;;;6.93;;
46036;SDS011;31769;49.304;8.428;2024-02-21T09:28:20;17.38;;;6.70;;
46036;SDS011;31769;49.304;8.428;2024-02-21T09:31:21;18.05;;;6.88;;
46036;SDS011;31769;49.304;8.428;2024-02-21T09:34:21;20.30;;;7.13;;
46036;SDS011;31769;49.304;8.428;2024-02-21T09:37:22;14.43;;;6.30;;
46036;SDS011;31769;49.304;8.428;2024-02-21T09:40:23;14.70;;;6.90;;
46036;SDS011;31769;49.304;8.428;2024-02-21T09:43:24;17.65;;;5.88;;
46036;SDS011;31769;49.304;8.428;2024-02-21T09:49:54;13.30;;;5.15;;
46036;SDS011;31769;49.304;8.428;2024-02-21T09:52:57;13.55;;;5.43;;
46036;SDS011;31769;49.304;8.428;2024-02-21T09:56:01;13.18;;;5.00;;
46036;SDS011;31769;49.304;8.428;2024-02-21T09:59:03;15.10;;;4.53;;
46036;SDS011;31769;49.304;8.428;2024-02-21T10:02:05;15.20;;;4.80;;
46036;SDS011;31769;49.304;8.428;2024-02-21T10:05:06;13.18;;;4.55;;
46036;SDS011;31769;49.304;8.428;2024-02-21T10:08:13;9.90;;;3.70;;
46036;SDS011;31769;49.304;8.428;2024-02-21T10:11:21;14.35;;;4.70;;
46036;SDS011;31769;49.304;8.428;2024-02-21T10:14:25;12.27;;;4.47;;
46036;SDS011;31769;49.304;8.428;2024-02-21T10:17:25;15.35;;;4.30;;
46036;SDS011;31769;49.304;8.428;2024-02-21T10:20:26;13.93;;;4.18;;
46036;SDS011;31769;49.304;8.428;2024-02-21T10:23:27;13.07;;;4.05;;
46036;SDS011;31769;49.304;8.428;2024-02-21T10:26:28;11.13;;;4.13;;
46036;SDS011;31769;49.304;8.428;2024-02-21T10:29:29;13.80;;;4.10;;
46036;SDS011;31769;49.304;8.428;2024-02-21T10:32:34;8.85;;;3.28;;
46036;SDS011;31769;49.304;8.428;2024-02-21T10:35:34;12.82;;;3.97;;
46036;SDS011;31769;49.304;8.428;2024-02-21T10:38:38;13.38;;;4.05;;
46036;SDS011;31769;49.304;8.428;2024-02-21T10:41:40;13.38;;;4.53;;
46036;SDS011;31769;49.304;8.428;2024-02-21T10:44:42;12.95;;;4.30;;
46036;SDS011;31769;49.304;8.428;2024-02-21T10:47:46;14.32;;;4.35;;
46036;SDS011;31769;49.304;8.428;2024-02-21T10:51:01;13.20;;;4.50;;
46036;SDS011;31769;49.304;8.428;2024-02-21T10:57:27;15.60;;;4.95;;
46036;SDS011;31769;49.304;8.428;2024-02-21T11:00:28;15.57;;;4.72;;
46036;SDS011;31769;49.304;8.428;2024-02-21T11:03:30;11.95;;;4.80;;
46036;SDS011;31769;49.304;8.428;2024-02-21T11:06:31;13.07;;;4.35;;
46036;SDS011;31769;49.304;8.428;2024-02-21T11:09:33;12.48;;;4.07;;
46036;SDS011;31769;49.304;8.428;2024-02-21T11:12:34;12.63;;;4.60;;
46036;SDS011;31769;49.304;8.428;2024-02-21T11:15:35;9.38;;;3.83;;
46036;SDS011;31769;49.304;8.428;2024-02-21T11:18:36;10.02;;;3.40;;
46036;SDS011;31769;49.304;8.428;2024-02-21T11:21:37;8.93;;;3.42;;
46036;SDS011;31769;49.304;8.428;2024-02-21T11:24:38;8.15;;;3.30;;
46036;SDS011;31769;49.304;8.428;2024-02-21T11:27:39;10.13;;;3.22;;
46036;SDS011;31769;49.304;8.428;2024-02-21T11:33:46;10.52;;;4.07;;
46036;SDS011;31769;49.304;8.428;2024-02-21T11:36:51;10.63;;;3.42;;
46036;SDS011;31769;49.304;8.428;2024-02-21T11:39:52;13.27;;;3.45;;
46036;SDS011;31769;49.304;8.428;2024-02-21T11:42:57;11.25;;;4.00;;
46036;SDS011;31769;49.304;8.428;2024-02-21T11:46:02;11.70;;;3.70;;
46036;SDS011;31769;49.304;8.428;2024-02-21T11:49:04;11.05;;;3.72;;
46036;SDS011;31769;49.304;8.428;2024-02-21T11:52:06;8.35;;;3.35;;
46036;SDS011;31769;49.304;8.428;2024-02-21T11:55:07;9.85;;;3.25;;
46036;SDS011;31769;49.304;8.428;2024-02-21T11:58:08;8.10;;;3.45;;
46036;SDS011;31769;49.304;8.428;2024-02-21T12:01:09;11.43;;;3.20;;
46036;SDS011;31769;49.304;8.428;2024-02-21T12:04:09;9.48;;;3.70;;
46036;SDS011;31769;49.304;8.428;2024-02-21T12:07:10;10.20;;;4.13;;
46036;SDS011;31769;49.304;8.428;2024-02-21T12:10:12;12.93;;;3.90;;
46036;SDS011;31769;49.304;8.428;2024-02-21T12:13:13;9.88;;;3.35;;
46036;SDS011;31769;49.304;8.428;2024-02-21T12:16:17;9.43;;;3.13;;
46036;SDS011;31769;49.304;8.428;2024-02-21T12:19:18;11.13;;;3.65;;
46036;SDS011;31769;49.304;8.428;2024-02-21T12:22:19;10.85;;;3.30;;
46036;SDS011;31769;49.304;8.428;2024-02-21T12:25:23;11.05;;;4.40;;
46036;SDS011;31769;49.304;8.428;2024-02-21T12:28:26;11.55;;;3.50;;
46036;SDS011;31769;49.304;8.428;2024-02-21T12:31:26;11.52;;;3.80;;
46036;SDS011;31769;49.304;8.428;2024-02-21T12:34:28;12.20;;;3.63;;
46036;SDS011;31769;49.304;8.428;2024-02-21T12:37:31;12.27;;;3.90;;
46036;SDS011;31769;49.304;8.428;2024-02-21T12:40:33;10.60;;;3.53;;
46036;SDS011;31769;49.304;8.428;2024-02-21T12:43:33;9.45;;;3.38;;
46036;SDS011;31769;49.304;8.428;2024-02-21T12:46:34;7.82;;;3.22;;
46036;SDS011;31769;49.304;8.428;2024-02-21T12:49:36;12.23;;;3.45;;
46036;SDS011;31769;49.304;8.428;2024-02-21T12:52:36;9.13;;;3.40;;
46036;SDS011;31769;49.304;8.428;2024-02-21T12:55:37;11.27;;;3.85;;
46036;SDS011;31769;49.304;8.428;2024-02-21T12:58:38;9.48;;;3.50;;
46036;SDS011;31769;49.304;8.428;2024-02-21T13:01:39;10.52;;;3.40;;
46036;SDS011;31769;49.304;8.428;2024-02-21T13:04:40;9.40;;;3.17;;
46036;SDS011;31769;49.304;8.428;2024-02-21T13:07:41;7.93;;;2.78;;
46036;SDS011;31769;49.304;8.428;2024-02-21T13:10:43;7.28;;;2.65;;
46036;SDS011;31769;49.304;8.428;2024-02-21T13:13:44;10.52;;;3.50;;
46036;SDS011;31769;49.304;8.428;2024-02-21T13:16:44;11.60;;;3.47;;
46036;SDS011;31769;49.304;8.428;2024-02-21T13:19:45;12.98;;;3.95;;
46036;SDS011;31769;49.304;8.428;2024-02-21T13:22:46;9.90;;;3.67;;
46036;SDS011;31769;49.304;8.428;2024-02-21T13:25:47;8.10;;;3.55;;
46036;SDS011;31769;49.304;8.428;2024-02-21T13:28:47;8.98;;;4.03;;
46036;SDS011;31769;49.304;8.428;2024-02-21T13:31:48;10.30;;;3.50;;
46036;SDS011;31769;49.304;8.428;2024-02-21T13:34:50;7.57;;;3.35;;
46036;SDS011;31769;49.304;8.428;2024-02-21T13:37:52;10.43;;;3.58;;
46036;SDS011;31769;49.304;8.428;2024-02-21T13:40:53;8.70;;;2.90;;
46036;SDS011;31769;49.304;8.428;2024-02-21T13:43:54;13.45;;;3.90;;
46036;SDS011;31769;49.304;8.428;2024-02-21T13:46:54;10.02;;;3.30;;
46036;SDS011;31769;49.304;8.428;2024-02-21T13:49:55;8.48;;;3.38;;
46036;SDS011;31769;49.304;8.428;2024-02-21T13:52:56;11.07;;;3.65;;
46036;SDS011;31769;49.304;8.428;2024-02-21T13:55:56;6.35;;;3.15;;
46036;SDS011;31769;49.304;8.428;2024-02-21T13:58:58;10.60;;;3.20;;
46036;SDS011;31769;49.304;8.428;2024-02-21T14:02:00;11.48;;;3.30;;
46036;SDS011;31769;49.304;8.428;2024-02-21T14:05:00;8.55;;;2.97;;
46036;SDS011;31769;49.304;8.428;2024-02-21T14:08:01;12.73;;;3.60;;
46036;SDS011;31769;49.304;8.428;2024-02-21T14:11:02;8.77;;;3.00;;
46036;SDS011;31769;49.304;8.428;2024-02-21T14:14:02;11.45;;;3.35;;
46036;SDS011;31769;49.304;8.428;2024-02-21T14:17:03;6.93;;;2.85;;
46036;SDS011;31769;49.304;8.428;2024-02-21T14:20:04;8.55;;;2.75;;
46036;SDS011;31769;49.304;8.428;2024-02-21T14:23:06;9.10;;;3.13;;
46036;SDS011;31769;49.304;8.428;2024-02-21T14:26:07;10.35;;;4.70;;
46036;SDS011;31769;49.304;8.428;2024-02-21T14:29:08;10.25;;;3.40;;
46036;SDS011;31769;49.304;8.428;2024-02-21T14:32:09;10.68;;;3.33;;
46036;SDS011;31769;49.304;8.428;2024-02-21T14:35:12;10.23;;;3.13;;
46036;SDS011;31769;49.304;8.428;2024-02-21T14:38:13;11.70;;;3.60;;
46036;SDS011;31769;49.304;8.428;2024-02-21T14:41:14;10.23;;;3.50;;
46036;SDS011;31769;49.304;8.428;2024-02-21T14:44:15;11.07;;;3.40;;
46036;SDS011;31769;49.304;8.428;2024-02-21T14:47:15;7.30;;;3.45;;
46036;SDS011;31769;49.304;8.428;2024-02-21T14:50:16;10.75;;;2.95;;
46036;SDS011;31769;49.304;8.428;2024-02-21T14:53:17;10.35;;;3.47;;
46036;SDS011;31769;49.304;8.428;2024-02-21T14:56:18;9.27;;;3.08;;
46036;SDS011;31769;49.304;8.428;2024-02-21T14:59:19;8.40;;;3.00;;
46036;SDS011;31769;49.304;8.428;2024-02-21T15:02:19;7.95;;;3.00;;
46036;SDS011;31769;49.304;8.428;2024-02-21T15:05:20;13.00;;;3.20;;
46036;SDS011;31769;49.304;8.428;2024-02-21T15:08:21;8.52;;;3.20;;
46036;SDS011;31769;49.304;8.428;2024-02-21T15:11:21;7.40;;;2.95;;
46036;SDS011;31769;49.304;8.428;2024-02-21T15:14:23;12.18;;;3.90;;
46036;SDS011;31769;49.304;8.428;2024-02-21T15:17:24;8.73;;;3.00;;
46036;SDS011;31769;49.304;8.428;2024-02-21T15:20:25;11.07;;;3.63;;
46036;SDS011;31769;49.304;8.428;2024-02-21T15:23:28;11.98;;;3.20;;
46036;SDS011;31769;49.304;8.428;2024-02-21T15:26:31;7.07;;;3.13;;
46036;SDS011;31769;49.304;8.428;2024-02-21T15:29:33;8.60;;;3.20;;
46036;SDS011;31769;49.304;8.428;2024-02-21T15:32:34;8.35;;;2.95;;
46036;SDS011;31769;49.304;8.428;2024-02-21T15:35:34;7.05;;;2.95;;
46036;SDS011;31769;49.304;8.428;2024-02-21T15:38:35;9.50;;;3.22;;
46036;SDS011;31769;49.304;8.428;2024-02-21T15:41:36;12.60;;;2.72;;
46036;SDS011;31769;49.304;8.428;2024-02-21T15:44:37;10.38;;;3.08;;
46036;SDS011;31769;49.304;8.428;2024-02-21T15:47:39;9.35;;;2.78;;
46036;SDS011;31769;49.304;8.428;2024-02-21T15:50:39;8.52;;;2.88;;
46036;SDS011;31769;49.304;8.428;2024-02-21T15:53:40;9.48;;;2.85;;
46036;SDS011;31769;49.304;8.428;2024-02-21T15:56:45;14.75;;;3.05;;
46036;SDS011;31769;49.304;8.428;2024-02-21T15:59:45;12.15;;;3.80;;
46036;SDS011;31769;49.304;8.428;2024-02-21T16:02:46;12.43;;;3.90;;
46036;SDS011;31769;49.304;8.428;2024-02-21T16:05:47;10.35;;;3.50;;
46036;SDS011;31769;49.304;8.428;2024-02-21T16:08:48;10.30;;;3.63;;
46036;SDS011;31769;49.304;8.428;2024-02-21T16:11:50;8.80;;;3.30;;
46036;SDS011;31769;49.304;8.428;2024-02-21T16:14:51;9.43;;;3.75;;
46036;SDS011;31769;49.304;8.428;2024-02-21T16:17:51;7.60;;;3.47;;
46036;SDS011;31769;49.304;8.428;2024-02-21T16:20:52;9.75;;;3.75;;
46036;SDS011;31769;49.304;8.428;2024-02-21T16:23:53;11.27;;;5.70;;
46036;SDS011;31769;49.304;8.428;2024-02-21T16:26:53;14.57;;;5.57;;
46036;SDS011;31769;49.304;8.428;2024-02-21T16:29:54;10.60;;;3.95;;
46036;SDS011;31769;49.304;8.428;2024-02-21T16:32:55;11.55;;;4.78;;
46036;SDS011;31769;49.304;8.428;2024-02-21T16:35:55;12.05;;;5.95;;
46036;SDS011;31769;49.304;8.428;2024-02-21T16:38:57;10.70;;;5.70;;
46036;SDS011;31769;49.304;8.428;2024-02-21T16:42:03;9.32;;;4.05;;
46036;SDS011;31769;49.304;8.428;2024-02-21T16:45:04;12.90;;;5.10;;
46036;SDS011;31769;49.304;8.428;2024-02-21T16:48:05;12.45;;;5.97;;
46036;SDS011;31769;49.304;8.428;2024-02-21T16:51:06;10.07;;;4.53;;
46036;SDS011;31769;49.304;8.428;2024-02-21T16:54:07;8.65;;;4.57;;
46036;SDS011;31769;49.304;8.428;2024-02-21T16:57:09;10.13;;;4.38;;
46036;SDS011;31769;49.304;8.428;2024-02-21T17:00:10;9.98;;;3.33;;
46036;SDS011;31769;49.304;8.428;2024-02-21T17:03:13;6.90;;;3.35;;
46036;SDS011;31769;49.304;8.428;2024-02-21T17:06:19;9.02;;;3.67;;
46036;SDS011;31769;49.304;8.428;2024-02-21T17:09:20;9.18;;;3.35;;
46036;SDS011;31769;49.304;8.428;2024-02-21T17:12:20;11.27;;;3.53;;
46036;SDS011;31769;49.304;8.428;2024-02-21T17:15:21;6.22;;;2.88;;
46036;SDS011;31769;49.304;8.428;2024-02-21T17:18:22;11.25;;;3.05;;
46036;SDS011;31769;49.304;8.428;2024-02-21T17:21:23;10.55;;;2.67;;
46036;SDS011;31769;49.304;8.428;2024-02-21T17:24:24;8.35;;;3.13;;
46036;SDS011;31769;49.304;8.428;2024-02-21T17:27:26;9.02;;;3.05;;
46036;SDS011;31769;49.304;8.428;2024-02-21T17:30:27;6.22;;;2.95;;
46036;SDS011;31769;49.304;8.428;2024-02-21T17:33:28;8.95;;;3.35;;
46036;SDS011;31769;49.304;8.428;2024-02-21T17:36:29;10.63;;;3.53;;
46036;SDS011;31769;49.304;8.428;2024-02-21T17:39:29;8.98;;;4.20;;
46036;SDS011;31769;49.304;8.428;2024-02-21T17:42:30;13.02;;;3.67;;
46036;SDS011;31769;49.304;8.428;2024-02-21T17:45:31;37.42;;;16.20;;
46036;SDS011;31769;49.304;8.428;2024-02-21T17:48:33;15.90;;;6.85;;
46036;SDS011;31769;49.304;8.428;2024-02-21T17:51:33;58.42;;;21.33;;
46036;SDS011;31769;49.304;8.428;2024-02-21T17:54:36;11.98;;;5.03;;
46036;SDS011;31769;49.304;8.428;2024-02-21T17:57:39;10.50;;;3.60;;
46036;SDS011;31769;49.304;8.428;2024-02-21T18:00:39;8.75;;;4.10;;
46036;SDS011;31769;49.304;8.428;2024-02-21T18:03:44;8.30;;;4.25;;
46036;SDS011;31769;49.304;8.428;2024-02-21T18:06:45;19.60;;;8.63;;